createdAt,value
2018-03-14T00:01:41.991Z,96901.05
2018-03-14T00:04:09.544Z,96906.35
2018-03-14T00:06:37.582Z,96903.89
2018-03-14T00:09:05.133Z,96913.84
2018-03-14T00:11:32.657Z,96908.94
2018-03-14T00:14:00.225Z,96909.98
2018-03-14T00:16:27.787Z,96908.02
2018-03-14T00:18:56.278Z,96907.70
2018-03-14T00:21:23.828Z,96909.67
2018-03-14T00:23:51.350Z,96918.95
2018-03-14T00:26:19.293Z,96913.23
2018-03-14T00:28:46.829Z,96912.27
2018-03-14T00:31:14.365Z,96914.91
2018-03-14T00:33:41.929Z,96913.84
2018-03-14T00:36:09.474Z,96916.08
2018-03-14T00:38:37.256Z,96922.19
2018-03-14T00:41:05.767Z,96918.20
2018-03-14T00:43:33.282Z,96917.05
2018-03-14T00:46:00.834Z,96915.03
2018-03-14T00:48:29.367Z,96916.00
2018-03-14T00:50:57.104Z,96919.81
2018-03-14T00:53:24.643Z,96917.23
2018-03-14T00:55:52.186Z,96919.17
2018-03-14T00:58:19.755Z,96920.84
2018-03-14T01:00:47.286Z,96926.08
2018-03-14T01:03:15.221Z,96925.54
2018-03-14T01:05:43.625Z,96925.16
2018-03-14T01:08:11.149Z,96931.24
2018-03-14T01:10:38.695Z,96926.44
2018-03-14T01:13:06.219Z,96928.44
2018-03-14T01:15:33.925Z,96924.89
2018-03-14T01:18:01.448Z,96928.88
2018-03-14T01:20:28.974Z,96926.53
2018-03-14T01:22:56.524Z,96922.99
2018-03-14T01:25:24.057Z,96928.08
2018-03-14T01:27:51.826Z,96929.33
2018-03-14T01:30:19.363Z,96923.45
2018-03-14T01:32:46.893Z,96918.42
2018-03-14T01:35:14.437Z,96918.64
2018-03-14T01:37:41.976Z,96920.39
2018-03-14T01:40:09.682Z,96915.22
2018-03-14T01:42:37.215Z,96914.61
2018-03-14T01:45:04.740Z,96913.03
2018-03-14T01:47:32.733Z,96916.48
2018-03-14T01:50:00.277Z,96919.84
2018-03-14T01:52:28.129Z,96925.06
2018-03-14T01:54:55.649Z,96919.03
2018-03-14T01:57:24.198Z,96912.91
2018-03-14T01:59:51.755Z,96914.80
2018-03-14T02:02:19.277Z,96912.31
2018-03-14T02:04:46.953Z,96911.49
2018-03-14T02:07:14.474Z,96924.14
2018-03-14T02:09:42.481Z,96927.97
2018-03-14T02:12:10.022Z,96931.42
2018-03-14T02:14:37.545Z,96927.33
2018-03-14T02:17:05.262Z,96929.05
2018-03-14T02:19:32.788Z,96932.14
2018-03-14T02:22:00.326Z,96930.23
2018-03-14T02:24:27.874Z,96924.53
2018-03-14T02:26:55.414Z,96932.92
2018-03-14T02:29:23.261Z,96930.00
2018-03-14T02:31:50.791Z,96934.02
2018-03-14T02:34:18.320Z,96935.10
2018-03-14T02:36:57.833Z,96938.34
2018-03-14T02:39:25.361Z,96928.59
2018-03-14T02:41:53.142Z,96935.19
2018-03-14T02:44:20.684Z,96943.31
2018-03-14T02:46:48.217Z,96945.70
2018-03-14T02:49:16.664Z,96947.55
2018-03-14T02:51:44.174Z,96947.72
2018-03-14T02:54:11.965Z,96939.63
2018-03-14T02:56:39.492Z,96945.27
2018-03-14T02:59:07.518Z,96939.20
2018-03-14T03:01:35.085Z,96945.58
2018-03-14T03:04:02.597Z,96944.77
2018-03-14T03:06:30.154Z,96945.25
2018-03-14T03:08:57.666Z,96952.62
2018-03-14T03:11:25.178Z,96957.06
2018-03-14T03:13:52.722Z,96958.33
2018-03-14T03:16:20.246Z,96957.86
2018-03-14T03:18:47.986Z,96950.59
2018-03-14T03:21:15.957Z,96959.05
2018-03-14T03:23:43.465Z,96957.78
2018-03-14T03:26:11.011Z,96959.97
2018-03-14T03:28:38.521Z,96955.67
2018-03-14T03:31:07.008Z,96963.87
2018-03-14T03:33:35.474Z,96962.08
2018-03-14T03:36:02.986Z,96956.17
2018-03-14T03:38:30.611Z,96953.30
2018-03-14T03:40:58.121Z,96956.22
2018-03-14T03:43:25.667Z,96961.30
2018-03-14T03:45:53.177Z,96965.00
2018-03-14T03:48:20.686Z,96972.94
2018-03-14T03:50:49.127Z,96964.77
2018-03-14T03:53:17.583Z,96964.86
2018-03-14T03:55:45.339Z,96968.35
2018-03-14T03:58:12.849Z,96966.27
2018-03-14T04:00:41.328Z,96967.34
2018-03-14T04:03:09.254Z,96967.44
2018-03-14T04:05:36.770Z,96968.13
2018-03-14T04:08:04.340Z,96966.22
2018-03-14T04:10:32.774Z,96970.10
2018-03-14T04:13:00.285Z,96969.52
2018-03-14T04:15:28.710Z,96978.47
2018-03-14T04:17:56.225Z,96974.21
2018-03-14T04:20:23.931Z,96972.11
2018-03-14T04:22:51.442Z,96974.83
2018-03-14T04:25:18.948Z,96973.42
2018-03-14T04:27:46.482Z,96975.73
2018-03-14T04:30:13.990Z,96975.92
2018-03-14T04:32:41.543Z,96976.25
2018-03-14T04:35:09.048Z,96972.78
2018-03-14T04:37:37.566Z,96976.36
2018-03-14T04:40:05.117Z,96978.49
2018-03-14T04:42:32.633Z,96981.83
2018-03-14T04:45:00.525Z,96971.92
2018-03-14T04:47:28.044Z,96973.23
2018-03-14T04:49:55.549Z,96977.53
2018-03-14T04:52:23.078Z,96978.95
2018-03-14T04:54:50.606Z,96980.07
2018-03-14T04:57:18.369Z,96983.53
2018-03-14T04:59:45.874Z,96979.05
2018-03-14T05:02:13.391Z,96973.24
2018-03-14T05:04:40.970Z,96972.91
2018-03-14T05:07:08.478Z,96970.69
2018-03-14T05:09:36.219Z,96964.84
2018-03-14T05:12:03.730Z,96969.28
2018-03-14T05:14:31.233Z,96974.64
2018-03-14T05:16:58.777Z,96972.38
2018-03-14T05:19:26.298Z,96972.98
2018-03-14T05:21:53.849Z,96978.30
2018-03-14T05:24:21.366Z,96970.29
2018-03-14T05:26:48.930Z,96971.28
2018-03-14T05:29:16.445Z,96971.92
2018-03-14T05:31:44.889Z,96974.95
2018-03-14T05:34:12.444Z,96975.60
2018-03-14T05:36:39.957Z,96975.53
2018-03-14T05:39:08.590Z,96970.83
2018-03-14T05:41:36.142Z,96970.48
2018-03-14T05:44:03.645Z,96973.49
2018-03-14T05:46:31.190Z,96972.67
2018-03-14T05:48:58.694Z,96976.92
2018-03-14T05:51:26.206Z,96979.09
2018-03-14T05:53:53.751Z,96979.25
2018-03-14T05:56:21.257Z,96983.75
2018-03-14T05:58:50.188Z,96978.95
2018-03-14T06:01:17.698Z,96975.44
2018-03-14T06:03:45.203Z,96979.81
2018-03-14T06:06:12.734Z,96972.79
2018-03-14T06:08:40.237Z,96973.27
2018-03-14T06:11:07.966Z,96977.43
2018-03-14T06:13:35.496Z,96978.97
2018-03-14T06:16:03.005Z,96976.05
2018-03-14T06:18:30.535Z,96984.52
2018-03-14T06:20:58.049Z,96983.25
2018-03-14T06:23:25.601Z,96975.87
2018-03-14T06:25:53.114Z,96981.22
2018-03-14T06:28:20.641Z,96978.67
2018-03-14T06:30:48.177Z,96980.07
2018-03-14T06:33:15.690Z,96980.81
2018-03-14T06:35:43.477Z,96981.47
2018-03-14T06:38:10.990Z,96980.67
2018-03-14T06:40:38.510Z,96988.65
2018-03-14T06:43:06.461Z,96995.67
2018-03-14T06:45:33.972Z,96999.02
2018-03-14T06:48:01.529Z,97008.28
2018-03-14T06:50:29.039Z,97004.31
2018-03-14T06:52:56.578Z,97001.53
2018-03-14T06:55:24.109Z,97001.33
2018-03-14T06:57:51.617Z,97003.19
2018-03-14T07:00:31.767Z,97012.08
2018-03-14T07:03:11.113Z,97004.73
2018-03-14T07:05:50.437Z,96999.70
2018-03-14T07:08:17.950Z,96997.25
2018-03-14T07:10:45.738Z,96996.91
2018-03-14T07:13:13.246Z,96997.45
2018-03-14T07:15:40.775Z,96997.23
2018-03-14T07:18:08.318Z,96998.34
2018-03-14T07:20:35.830Z,96999.86
2018-03-14T07:23:03.378Z,97009.55
2018-03-14T07:25:30.906Z,97004.00
2018-03-14T07:27:58.422Z,97005.22
2018-03-14T07:30:25.970Z,97000.45
2018-03-14T07:32:53.484Z,97006.28
2018-03-14T07:35:21.046Z,97013.77
2018-03-14T07:37:48.609Z,97014.16
2018-03-14T07:40:16.125Z,97016.45
2018-03-14T07:42:44.134Z,97010.70
2018-03-14T07:45:11.795Z,97019.42
2018-03-14T07:47:39.739Z,97020.30
2018-03-14T07:50:07.280Z,97020.95
2018-03-14T07:52:34.794Z,97025.25
2018-03-14T07:55:02.334Z,97022.42
2018-03-14T07:57:30.308Z,97020.70
2018-03-14T07:59:57.849Z,97018.70
2018-03-14T08:02:26.450Z,97027.33
2018-03-14T08:04:54.413Z,97026.00
2018-03-14T08:07:21.952Z,97026.84
2018-03-14T08:09:49.468Z,97024.80
2018-03-14T08:12:17.114Z,97026.17
2018-03-14T08:14:44.625Z,97027.53
2018-03-14T08:17:12.142Z,97025.78
2018-03-14T08:19:39.684Z,97017.55
2018-03-14T08:22:07.231Z,97020.67
2018-03-14T08:24:34.968Z,97016.68
2018-03-14T08:27:02.481Z,97005.97
2018-03-14T08:29:30.117Z,97010.03
2018-03-14T08:31:57.656Z,97010.39
2018-03-14T08:34:25.245Z,97013.91
2018-03-14T08:36:52.874Z,97012.94
2018-03-14T08:39:20.452Z,97010.82
2018-03-14T08:41:48.062Z,97010.67
2018-03-14T08:44:15.775Z,97005.81
2018-03-14T08:46:43.312Z,96998.09
2018-03-14T08:49:10.872Z,97000.08
2018-03-14T08:51:38.378Z,96999.96
2018-03-14T08:54:05.898Z,97008.13
2018-03-14T08:56:33.463Z,97003.55
2018-03-14T08:59:00.974Z,97007.75
2018-03-14T09:01:28.537Z,97000.77
2018-03-14T09:03:57.310Z,97008.79
2018-03-14T09:06:24.830Z,97006.59
2018-03-14T09:08:53.677Z,97000.43
2018-03-14T09:11:21.692Z,97003.48
2018-03-14T09:13:49.354Z,96997.04
2018-03-14T09:16:16.893Z,96993.11
2018-03-14T09:18:44.427Z,96990.56
2018-03-14T09:21:11.970Z,96985.21
2018-03-14T09:23:39.486Z,97001.64
2018-03-14T09:26:07.329Z,96998.19
2018-03-14T09:28:34.846Z,96991.86
2018-03-14T09:31:02.367Z,96985.97
2018-03-14T09:33:29.915Z,96979.88
2018-03-14T09:35:57.441Z,96973.97
2018-03-14T09:38:25.122Z,96981.95
2018-03-14T09:40:52.632Z,96979.88
2018-03-14T09:43:20.157Z,96976.41
2018-03-14T09:45:47.702Z,96975.40
2018-03-14T09:48:15.694Z,96973.16
2018-03-14T09:50:43.429Z,96971.34
2018-03-14T09:53:11.071Z,96968.41
2018-03-14T09:55:38.595Z,96965.63
2018-03-14T09:58:06.215Z,96965.61
2018-03-14T10:00:33.732Z,96965.44
2018-03-14T10:03:01.271Z,96955.31
2018-03-14T10:05:28.786Z,96955.52
2018-03-14T10:07:56.301Z,96956.77
2018-03-14T10:10:23.843Z,96960.03
2018-03-14T10:12:51.551Z,96964.11
2018-03-14T10:15:19.261Z,96948.05
2018-03-14T10:17:46.792Z,96951.39
2018-03-14T10:20:14.476Z,96951.91
2018-03-14T10:22:42.444Z,96950.51
2018-03-14T10:25:10.928Z,96949.99
2018-03-14T10:27:38.779Z,96956.08
2018-03-14T10:30:06.664Z,96953.11
2018-03-14T10:32:34.195Z,96951.17
2018-03-14T10:35:01.734Z,96947.42
2018-03-14T10:37:29.282Z,96952.27
2018-03-14T10:39:56.975Z,96938.63
2018-03-14T10:42:24.970Z,96946.84
2018-03-14T10:44:52.474Z,96942.80
2018-03-14T10:47:20.007Z,96946.80
2018-03-14T10:49:47.581Z,96936.33
2018-03-14T10:52:15.138Z,96939.80
2018-03-14T10:54:42.653Z,96930.97
2018-03-14T10:57:10.166Z,96933.04
2018-03-14T10:59:37.709Z,96925.87
2018-03-14T11:05:10.222Z,96927.53
2018-03-14T11:07:37.757Z,96918.89
2018-03-14T11:10:05.629Z,96915.08
2018-03-14T11:12:33.138Z,96914.53
2018-03-14T11:15:00.662Z,96910.94
2018-03-14T11:17:28.204Z,96913.58
2018-03-14T11:19:55.714Z,96910.98
2018-03-14T11:22:24.213Z,96903.69
2018-03-14T11:24:51.721Z,96902.70
2018-03-14T11:27:19.234Z,96905.06
2018-03-14T11:29:46.782Z,96907.45
2018-03-14T11:32:14.297Z,96900.97
2018-03-14T11:34:41.982Z,96903.28
2018-03-14T11:37:09.772Z,96898.77
2018-03-14T11:39:37.300Z,96894.13
2018-03-14T11:42:04.843Z,96886.01
2018-03-14T11:44:32.360Z,96880.12
2018-03-14T11:47:00.086Z,96879.49
2018-03-14T11:49:27.595Z,96873.14
2018-03-14T11:51:55.100Z,96872.00
2018-03-14T11:54:22.629Z,96871.53
2018-03-14T11:56:50.188Z,96870.80
2018-03-14T11:59:17.878Z,96871.10
2018-03-14T12:01:45.397Z,96861.44
2018-03-14T12:04:12.907Z,96854.59
2018-03-14T12:06:40.450Z,96855.30
2018-03-14T12:09:08.014Z,96853.31
2018-03-14T12:11:35.554Z,96853.42
2018-03-14T12:14:03.088Z,96846.55
2018-03-14T12:16:30.597Z,96843.75
2018-03-14T12:18:58.126Z,96835.36
2018-03-14T12:21:25.633Z,96838.72
2018-03-14T12:23:53.483Z,96831.41
2018-03-14T12:26:21.205Z,96828.23
2018-03-14T12:28:48.742Z,96812.50
2018-03-14T12:31:16.484Z,96814.44
2018-03-14T12:33:44.003Z,96809.11
2018-03-14T12:36:12.068Z,96804.97
2018-03-14T12:38:39.585Z,96790.69
2018-03-14T12:41:07.117Z,96789.90
2018-03-14T12:43:34.794Z,96789.89
2018-03-14T12:46:02.411Z,96776.75
2018-03-14T12:48:30.525Z,96785.89
2018-03-14T12:50:58.290Z,96770.48
2018-03-14T12:53:26.156Z,96763.05
2018-03-14T12:55:54.124Z,96764.36
2018-03-14T12:58:21.686Z,96758.14
2018-03-14T13:00:49.437Z,96753.87
2018-03-14T13:03:17.305Z,96751.88
2018-03-14T13:05:45.032Z,96748.78
2018-03-14T13:08:12.828Z,96742.21
2018-03-14T13:10:40.374Z,96739.38
2018-03-14T13:13:08.211Z,96737.91
2018-03-14T13:15:35.828Z,96742.62
2018-03-14T13:18:03.592Z,96742.34
2018-03-14T13:20:31.333Z,96738.25
2018-03-14T13:22:58.850Z,96735.02
2018-03-14T13:25:26.411Z,96739.75
2018-03-14T13:27:54.125Z,96733.98
2018-03-14T13:30:21.650Z,96723.59
2018-03-14T13:32:49.243Z,96720.55
2018-03-14T13:35:17.428Z,96720.61
2018-03-14T13:37:45.032Z,96720.71
2018-03-14T13:40:12.611Z,96718.59
2018-03-14T13:42:40.152Z,96722.09
2018-03-14T13:45:07.718Z,96715.25
2018-03-14T13:47:35.225Z,96708.44
2018-03-14T13:50:02.954Z,96709.26
2018-03-14T13:52:30.501Z,96704.11
2018-03-14T13:54:58.049Z,96699.19
2018-03-14T13:57:25.972Z,96696.20
2018-03-14T13:59:53.521Z,96695.01
2018-03-14T14:02:21.098Z,96685.84
2018-03-14T14:04:48.671Z,96680.38
2018-03-14T14:07:16.722Z,96666.25
2018-03-14T14:09:44.256Z,96658.38
2018-03-14T14:12:11.987Z,96654.55
2018-03-14T14:14:39.707Z,96647.87
2018-03-14T14:17:07.224Z,96646.93
2018-03-14T14:19:34.874Z,96639.55
2018-03-14T14:22:02.389Z,96642.17
2018-03-14T14:24:30.035Z,96625.65
2018-03-14T14:26:57.622Z,96619.11
2018-03-14T14:29:25.151Z,96615.91
2018-03-14T14:31:52.803Z,96618.02
2018-03-14T14:34:20.661Z,96618.04
2018-03-14T14:36:48.206Z,96618.00
2018-03-14T14:39:15.914Z,96606.97
2018-03-14T14:41:43.660Z,96600.42
2018-03-14T14:44:11.442Z,96596.41
2018-03-14T14:46:39.103Z,96596.80
2018-03-14T14:49:07.585Z,96593.53
2018-03-14T14:51:35.862Z,96575.09
2018-03-14T14:54:03.475Z,96575.97
2018-03-14T14:56:31.023Z,96575.86
2018-03-14T14:58:59.704Z,96568.39
2018-03-14T15:01:27.297Z,96567.30
2018-03-14T15:03:55.091Z,96563.02
2018-03-14T15:06:22.854Z,96567.42
2018-03-14T15:08:50.823Z,96559.98
2018-03-14T15:11:18.558Z,96559.06
2018-03-14T15:13:46.455Z,96561.23
2018-03-14T15:16:14.631Z,96554.09
2018-03-14T15:18:43.214Z,96544.64
2018-03-14T15:21:11.190Z,96543.02
2018-03-14T15:23:38.931Z,96545.91
2018-03-14T15:26:07.015Z,96544.91
2018-03-14T15:28:34.985Z,96536.90
2018-03-14T15:31:02.913Z,96539.57
2018-03-14T15:33:31.026Z,96532.55
2018-03-14T15:35:58.881Z,96529.10
2018-03-14T15:38:26.968Z,96517.91
2018-03-14T15:40:54.828Z,96508.51
2018-03-14T15:43:23.515Z,96507.77
2018-03-14T15:45:51.482Z,96512.45
2018-03-14T15:48:19.341Z,96506.08
2018-03-14T15:50:47.281Z,96503.51
2018-03-14T15:53:14.980Z,96506.66
2018-03-14T15:55:42.744Z,96511.55
2018-03-14T15:58:10.510Z,96507.63
2018-03-14T16:00:38.271Z,96500.41
2018-03-14T16:03:06.343Z,96500.64
2018-03-14T16:05:34.004Z,96500.14
2018-03-14T16:08:01.556Z,96494.05
2018-03-14T16:10:29.224Z,96493.16
2018-03-14T16:12:57.091Z,96492.77
2018-03-14T16:15:24.956Z,96490.19
2018-03-14T16:17:52.630Z,96493.17
2018-03-14T16:20:20.280Z,96493.84
2018-03-14T16:22:48.249Z,96498.10
2018-03-14T16:25:16.117Z,96499.69
2018-03-14T16:27:43.880Z,96496.50
2018-03-14T16:30:11.747Z,96495.34
2018-03-14T16:32:39.513Z,96495.72
2018-03-14T16:35:07.377Z,96500.77
2018-03-14T16:37:35.222Z,96495.20
2018-03-14T16:40:03.100Z,96494.17
2018-03-14T16:42:30.874Z,96499.35
2018-03-14T16:44:58.720Z,96500.23
2018-03-14T16:47:26.505Z,96496.16
2018-03-14T16:49:54.373Z,96494.45
2018-03-14T16:52:22.749Z,96499.25
2018-03-14T16:54:50.618Z,96493.98
2018-03-14T16:57:18.482Z,96489.48
2018-03-14T16:59:46.449Z,96491.56
2018-03-14T17:02:14.238Z,96489.64
2018-03-14T17:04:42.184Z,96493.00
2018-03-14T17:07:10.051Z,96493.66
2018-03-14T17:09:37.919Z,96492.38
2018-03-14T17:12:05.884Z,96485.23
2018-03-14T17:14:33.857Z,96484.55
2018-03-14T17:17:01.888Z,96476.86
2018-03-14T17:19:29.792Z,96487.25
2018-03-14T17:21:57.659Z,96490.44
2018-03-14T17:24:25.627Z,96491.29
2018-03-14T17:26:53.498Z,96487.77
2018-03-14T17:29:21.564Z,96489.36
2018-03-14T17:31:49.613Z,96489.88
2018-03-14T17:34:17.608Z,96484.11
2018-03-14T17:36:45.575Z,96486.09
2018-03-14T17:39:13.544Z,96486.52
2018-03-14T17:41:41.781Z,96486.25
2018-03-14T17:44:09.688Z,96481.23
2018-03-14T17:46:37.488Z,96476.84
2018-03-14T17:49:05.317Z,96477.69
2018-03-14T17:51:33.859Z,96475.26
2018-03-14T17:54:02.381Z,96479.83
2018-03-14T17:56:30.206Z,96476.14
2018-03-14T17:58:58.114Z,96478.45
2018-03-14T18:01:26.082Z,96470.18
2018-03-14T18:03:53.949Z,96471.78
2018-03-14T18:06:22.225Z,96468.69
2018-03-14T18:08:51.628Z,96467.78
2018-03-14T18:11:19.698Z,96463.02
2018-03-14T18:13:48.795Z,96464.27
2018-03-14T18:16:16.763Z,96458.86
2018-03-14T18:18:46.883Z,96457.03
2018-03-14T18:21:14.749Z,96450.56
2018-03-14T18:23:42.716Z,96458.31
2018-03-14T18:26:11.502Z,96442.52
2018-03-14T18:28:39.369Z,96444.25
2018-03-14T18:31:07.640Z,96443.34
2018-03-14T18:33:35.641Z,96441.04
2018-03-14T18:36:07.679Z,96449.39
2018-03-14T18:38:35.956Z,96448.16
2018-03-14T18:41:03.924Z,96448.91
2018-03-14T18:43:31.723Z,96437.03
2018-03-14T18:45:59.762Z,96436.70
2018-03-14T18:48:27.627Z,96433.37
2018-03-14T18:50:55.742Z,96425.82
2018-03-14T18:53:24.440Z,96426.63
2018-03-14T18:55:52.556Z,96424.23
2018-03-14T18:58:20.422Z,96425.91
2018-03-14T19:00:49.109Z,96429.84
2018-03-14T19:03:18.786Z,96425.16
2018-03-14T19:05:46.685Z,96421.72
2018-03-14T19:08:15.082Z,96416.09
2018-03-14T19:10:42.889Z,96414.52
2018-03-14T19:13:10.750Z,96414.98
2018-03-14T19:15:38.646Z,96407.23
2018-03-14T19:18:06.531Z,96407.16
2018-03-14T19:20:36.035Z,96405.95
2018-03-14T19:23:04.108Z,96406.42
2018-03-14T19:25:32.586Z,96406.45
2018-03-14T19:28:00.561Z,96408.41
2018-03-14T19:30:28.832Z,96401.12
2018-03-14T19:32:57.109Z,96397.30
2018-03-14T19:35:25.075Z,96392.02
2018-03-14T19:37:52.918Z,96386.27
2018-03-14T19:40:21.013Z,96382.51
2018-03-14T19:42:49.098Z,96383.20
2018-03-14T19:45:17.366Z,96373.33
2018-03-14T19:47:45.228Z,96365.28
2018-03-14T19:50:13.212Z,96376.48
2018-03-14T19:52:42.190Z,96383.33
2018-03-14T19:55:10.061Z,96382.41
2018-03-14T19:57:38.146Z,96376.90
2018-03-14T20:00:07.016Z,96371.48
2018-03-14T20:02:34.883Z,96369.62
2018-03-14T20:05:02.856Z,96367.14
2018-03-14T20:07:30.718Z,96358.95
2018-03-14T20:09:58.994Z,96365.92
2018-03-14T20:12:26.861Z,96366.72
2018-03-14T20:14:54.669Z,96362.39
2018-03-14T20:17:22.697Z,96363.84
2018-03-14T20:19:50.558Z,96359.15
2018-03-14T20:22:18.755Z,96365.82
2018-03-14T20:24:47.286Z,96355.47
2018-03-14T20:27:15.390Z,96359.05
2018-03-14T20:29:43.359Z,96355.36
2018-03-14T20:32:11.225Z,96351.63
2018-03-14T20:34:39.129Z,96350.20
2018-03-14T20:37:07.020Z,96343.58
2018-03-14T20:39:35.238Z,96341.39
2018-03-14T20:42:03.182Z,96335.37
2018-03-14T20:44:31.071Z,96323.38
2018-03-14T20:47:00.136Z,96329.59
2018-03-14T20:49:28.208Z,96330.42
2018-03-14T20:51:57.228Z,96338.80
2018-03-14T20:54:25.261Z,96334.36
2018-03-14T20:56:53.166Z,96341.14
2018-03-14T20:59:21.739Z,96334.77
2018-03-14T21:01:50.640Z,96319.95
2018-03-14T21:04:18.713Z,96321.48
2018-03-14T21:06:46.680Z,96315.47
2018-03-14T21:09:15.263Z,96312.69
2018-03-14T21:11:44.667Z,96310.67
2018-03-14T21:14:13.454Z,96307.05
2018-03-14T21:16:41.320Z,96305.00
2018-03-14T21:19:09.290Z,96300.93
2018-03-14T21:21:38.198Z,96300.70
2018-03-14T21:24:06.251Z,96301.80
2018-03-14T21:26:34.556Z,96305.67
2018-03-14T21:29:02.496Z,96305.81
2018-03-14T21:31:30.364Z,96298.06
2018-03-14T21:33:58.638Z,96292.41
2018-03-14T21:36:26.847Z,96287.08
2018-03-14T21:38:55.663Z,96288.12
2018-03-14T21:41:24.285Z,96273.55
2018-03-14T21:43:52.253Z,96267.20
2018-03-14T21:46:20.187Z,96262.95
2018-03-14T21:48:48.501Z,96260.14
2018-03-14T21:51:16.410Z,96261.58
2018-03-14T21:53:44.281Z,96264.46
2018-03-14T21:56:12.207Z,96263.99
2018-03-14T21:58:39.967Z,96251.44
2018-03-14T22:01:07.937Z,96240.67
2018-03-14T22:03:36.007Z,96244.50
2018-03-14T22:06:04.332Z,96241.62
2018-03-14T22:08:32.559Z,96242.78
2018-03-14T22:11:00.222Z,96243.54
2018-03-14T22:13:28.107Z,96233.77
2018-03-14T22:15:55.952Z,96230.64
2018-03-14T22:18:23.819Z,96229.25
2018-03-14T22:20:51.468Z,96230.97
2018-03-14T22:23:19.288Z,96221.95
2018-03-14T22:25:47.010Z,96219.17
2018-03-14T22:28:14.772Z,96218.20
2018-03-14T22:30:42.639Z,96208.34
2018-03-14T22:33:10.260Z,96215.09
2018-03-14T22:35:37.889Z,96205.34
2018-03-14T22:38:05.604Z,96200.07
2018-03-14T22:40:33.184Z,96191.61
2018-03-14T22:43:00.802Z,96185.66
2018-03-14T22:45:28.352Z,96189.52
2018-03-14T22:47:55.893Z,96179.25
2018-03-14T22:50:23.623Z,96181.36
2018-03-14T22:52:51.285Z,96174.81
2018-03-14T22:55:19.006Z,96178.61
2018-03-14T22:57:46.714Z,96174.50
2018-03-14T23:00:14.683Z,96172.24
2018-03-14T23:02:42.546Z,96165.39
2018-03-14T23:05:11.193Z,96165.50
2018-03-14T23:07:39.289Z,96154.62
2018-03-14T23:10:06.938Z,96158.02
2018-03-14T23:12:34.731Z,96152.57
2018-03-14T23:15:02.482Z,96143.67
2018-03-14T23:17:30.259Z,96138.91
2018-03-14T23:19:58.213Z,96142.56
2018-03-14T23:22:25.874Z,96142.53
2018-03-14T23:24:53.530Z,96132.77
2018-03-14T23:27:21.211Z,96133.38
2018-03-14T23:29:48.858Z,96128.31
2018-03-14T23:32:16.453Z,96119.84
2018-03-14T23:34:44.298Z,96118.41
2018-03-14T23:37:11.887Z,96114.30
2018-03-14T23:39:39.518Z,96117.78
2018-03-14T23:42:07.038Z,96101.67
2018-03-14T23:44:34.817Z,96100.30
2018-03-14T23:47:02.342Z,96092.97
2018-03-14T23:49:29.849Z,96098.56
2018-03-14T23:51:57.381Z,96090.39
2018-03-14T23:54:24.895Z,96095.97
2018-03-14T23:56:53.355Z,96090.13
2018-03-14T23:59:20.870Z,96092.90
